Time;durP1;ratioP1;P1;durP2;ratioP2;P2;SDS_P1;SDS_P2;PMS_P1;PMS_P2;Temp;Humidity;BMP_temperature;BMP_pressure;BME280_temperature;BME280_humidity;BME280_pressure;Samples;Min_cycle;Max_cycle;Signal;HPM_P1;HPM_P2
2021/08/08 00:01:21;;;;;;;3.47;0.90;;;;;;;;;;5096742;28;20506;-59
2021/08/08 00:03:47;;;;;;;3.65;1.00;;;;;;;;;;5096605;28;20115;-59
2021/08/08 00:06:13;;;;;;;5.47;1.00;;;;;;;;;;5095850;28;20167;-60
2021/08/08 00:08:39;;;;;;;4.53;0.77;;;;;;;;;;5102151;28;20074;-61
2021/08/08 00:11:07;;;;;;;5.63;1.23;;;;;;;;;;5103511;28;20040;-61
2021/08/08 00:13:33;;;;;;;4.80;0.90;;;;;;;;;;5095750;28;20035;-60
2021/08/08 00:15:59;;;;;;;3.10;1.00;;;;;;;;;;5095769;28;20110;-62
2021/08/08 00:18:25;;;;;;;4.28;1.02;;;;;;;;;;5095675;28;20459;-61
2021/08/08 00:20:51;;;;;;;5.57;0.90;;;;;;;;;;5095800;28;20061;-62
2021/08/08 00:23:17;;;;;;;4.32;0.95;;;;;;;;;;5095728;28;20376;-61
2021/08/08 00:25:44;;;;;;;3.83;1.20;;;;;;;;;;5095690;28;20040;-62
2021/08/08 00:28:10;;;;;;;4.25;1.00;;;;;;;;;;5095600;28;20063;-61
2021/08/08 00:30:36;;;;;;;4.63;1.02;;;;;;;;;;5095492;28;20078;-61
2021/08/08 00:33:02;;;;;;;4.90;1.17;;;;;;;;;;5095497;28;20020;-60
2021/08/08 00:35:28;;;;;;;6.97;1.17;;;;;;;;;;5095482;28;20028;-60
2021/08/08 00:37:54;;;;;;;4.65;1.00;;;;;;;;;;5095395;28;20032;-60
2021/08/08 00:40:20;;;;;;;4.25;1.20;;;;;;;;;;5094840;28;20100;-61
2021/08/08 00:42:47;;;;;;;6.50;1.08;;;;;;;;;;5095120;28;20506;-62
2021/08/08 00:45:17;;;;;;;5.65;1.20;;;;;;;;;;5095332;28;20082;-61
2021/08/08 00:47:43;;;;;;;5.35;1.40;;;;;;;;;;5095370;28;20020;-61
2021/08/08 00:50:10;;;;;;;4.82;1.10;;;;;;;;;;5081633;28;20456;-61
2021/08/08 00:52:36;;;;;;;7.78;1.42;;;;;;;;;;5074821;28;20054;-62
2021/08/08 00:55:03;;;;;;;5.03;1.15;;;;;;;;;;5056777;28;20025;-61
2021/08/08 00:57:29;;;;;;;9.55;1.58;;;;;;;;;;5089266;28;20027;-61
2021/08/08 00:59:55;;;;;;;13.10;1.48;;;;;;;;;;5095020;28;20024;-61
2021/08/08 01:02:21;;;;;;;6.43;1.38;;;;;;;;;;5094678;28;20035;-61
2021/08/08 01:05:01;;;;;;;9.15;1.80;;;;;;;;;;5094794;28;20533;-62
2021/08/08 01:07:30;;;;;;;4.63;1.50;;;;;;;;;;5094599;28;20028;-63
2021/08/08 01:09:58;;;;;;;7.57;1.10;;;;;;;;;;5108810;28;20781;-62
2021/08/08 01:12:24;;;;;;;5.22;1.40;;;;;;;;;;5094617;28;20028;-61
2021/08/08 01:14:51;;;;;;;4.40;1.48;;;;;;;;;;5094644;28;20474;-63
2021/08/08 01:17:17;;;;;;;7.65;1.42;;;;;;;;;;5094448;28;20360;-61
2021/08/08 01:20:04;;;;;;;5.68;1.50;;;;;;;;;;5094466;28;20035;-61
2021/08/08 01:22:31;;;;;;;3.00;1.60;;;;;;;;;;5094314;28;20020;-60
2021/08/08 01:24:58;;;;;;;7.07;1.42;;;;;;;;;;5094418;28;20107;-62
2021/08/08 01:27:25;;;;;;;9.00;1.50;;;;;;;;;;5094130;28;20356;-60
2021/08/08 01:29:53;;;;;;;11.45;1.88;;;;;;;;;;5075942;28;20040;-61
2021/08/08 01:32:19;;;;;;;8.75;2.08;;;;;;;;;;5094130;28;20024;-62
2021/08/08 01:34:45;;;;;;;10.65;2.05;;;;;;;;;;5094148;28;20099;-61
2021/08/08 01:37:11;;;;;;;9.95;1.80;;;;;;;;;;5094191;28;20436;-62
2021/08/08 01:39:38;;;;;;;6.10;2.15;;;;;;;;;;5094015;28;20036;-61
2021/08/08 01:42:09;;;;;;;8.00;2.08;;;;;;;;;;5094035;28;20024;-61
2021/08/08 01:44:39;;;;;;;6.18;1.75;;;;;;;;;;5075620;28;20024;-61
2021/08/08 01:47:09;;;;;;;6.80;2.03;;;;;;;;;;5093893;28;20077;-60
2021/08/08 01:49:35;;;;;;;7.80;2.33;;;;;;;;;;5085303;28;20028;-61
2021/08/08 01:52:02;;;;;;;10.00;1.75;;;;;;;;;;5055495;28;20024;-61
2021/08/08 01:54:28;;;;;;;8.48;2.20;;;;;;;;;;5072993;28;20070;-62
2021/08/08 01:56:54;;;;;;;10.88;2.22;;;;;;;;;;5073791;28;20029;-61
2021/08/08 01:59:21;;;;;;;6.35;2.00;;;;;;;;;;5073354;28;20518;-61
2021/08/08 02:01:47;;;;;;;10.98;2.40;;;;;;;;;;5073692;28;20040;-61
2021/08/08 02:04:16;;;;;;;6.20;2.05;;;;;;;;;;5055668;28;20028;-61
2021/08/08 02:06:42;;;;;;;8.65;1.73;;;;;;;;;;5055497;28;20422;-62
2021/08/08 02:09:08;;;;;;;10.02;2.53;;;;;;;;;;5098027;28;20040;-61
2021/08/08 02:11:34;;;;;;;11.57;2.13;;;;;;;;;;5097586;28;20077;-60
2021/08/08 02:14:00;;;;;;;9.02;2.38;;;;;;;;;;5093549;28;20043;-62
2021/08/08 02:16:26;;;;;;;7.65;2.25;;;;;;;;;;5093349;28;20059;-60
2021/08/08 02:18:52;;;;;;;7.22;2.00;;;;;;;;;;5093325;28;20041;-61
2021/08/08 02:21:18;;;;;;;9.55;1.95;;;;;;;;;;5093507;28;20028;-61
2021/08/08 02:23:44;;;;;;;9.30;2.60;;;;;;;;;;5093572;28;20400;-61
2021/08/08 02:26:10;;;;;;;8.20;2.40;;;;;;;;;;5093412;28;20024;-61
2021/08/08 02:28:36;;;;;;;6.72;2.33;;;;;;;;;;5093192;28;20076;-63
2021/08/08 02:31:02;;;;;;;7.38;2.30;;;;;;;;;;5093360;28;20111;-61
2021/08/08 02:33:28;;;;;;;10.63;2.80;;;;;;;;;;5075097;28;20020;-62
2021/08/08 02:35:54;;;;;;;10.90;2.17;;;;;;;;;;5075055;28;20391;-61
2021/08/08 02:38:20;;;;;;;5.55;1.95;;;;;;;;;;5093030;28;20039;-63
2021/08/08 02:40:46;;;;;;;8.20;2.55;;;;;;;;;;5093055;28;20094;-63
2021/08/08 02:43:12;;;;;;;18.70;2.35;;;;;;;;;;5092918;28;20050;-61
2021/08/08 02:45:38;;;;;;;13.15;2.45;;;;;;;;;;5074745;28;20073;-61
2021/08/08 02:48:04;;;;;;;23.77;2.60;;;;;;;;;;5092834;28;20070;-61
2021/08/08 02:50:30;;;;;;;13.98;2.53;;;;;;;;;;5076330;28;20554;-61
2021/08/08 02:52:56;;;;;;;11.68;1.70;;;;;;;;;;5072879;28;20103;-61
2021/08/08 02:55:22;;;;;;;12.43;2.20;;;;;;;;;;5072629;28;20035;-61
2021/08/08 02:57:48;;;;;;;13.27;2.53;;;;;;;;;;5090269;28;20027;-62
2021/08/08 03:00:14;;;;;;;9.80;2.20;;;;;;;;;;5093239;28;20081;-61
2021/08/08 03:02:40;;;;;;;6.68;2.17;;;;;;;;;;5092998;28;20027;-61
2021/08/08 03:05:06;;;;;;;9.32;2.10;;;;;;;;;;5092516;28;20028;-62
2021/08/08 03:07:32;;;;;;;8.27;2.05;;;;;;;;;;5092895;28;20027;-61
2021/08/08 03:09:58;;;;;;;9.35;2.30;;;;;;;;;;5092374;28;20051;-61
2021/08/08 03:12:24;;;;;;;13.00;2.40;;;;;;;;;;5092512;28;20378;-61
2021/08/08 03:14:50;;;;;;;11.10;2.10;;;;;;;;;;5092710;28;20020;-61
2021/08/08 03:17:16;;;;;;;8.88;2.40;;;;;;;;;;5092503;28;20370;-61
2021/08/08 03:19:42;;;;;;;10.75;2.20;;;;;;;;;;5092971;28;20043;-62
2021/08/08 03:22:08;;;;;;;13.15;2.20;;;;;;;;;;5093387;28;20024;-62
2021/08/08 03:24:35;;;;;;;11.88;2.45;;;;;;;;;;5093165;28;20344;-63
2021/08/08 03:27:01;;;;;;;9.98;2.13;;;;;;;;;;5092931;28;20099;-61
2021/08/08 03:29:27;;;;;;;7.10;2.03;;;;;;;;;;5092880;28;20123;-61
2021/08/08 03:31:53;;;;;;;6.93;2.10;;;;;;;;;;5092998;28;20021;-62
2021/08/08 03:34:19;;;;;;;8.07;2.30;;;;;;;;;;5092237;28;20395;-61
2021/08/08 03:36:45;;;;;;;10.98;2.20;;;;;;;;;;5092258;28;20028;-62
2021/08/08 03:39:11;;;;;;;7.03;2.33;;;;;;;;;;5092273;28;20031;-61
2021/08/08 03:41:36;;;;;;;7.18;2.15;;;;;;;;;;5092326;28;20020;-61
2021/08/08 03:44:03;;;;;;;11.57;2.25;;;;;;;;;;5074413;28;20024;-61
2021/08/08 03:46:29;;;;;;;7.90;2.42;;;;;;;;;;5092282;28;20103;-61
2021/08/08 03:48:55;;;;;;;8.50;1.88;;;;;;;;;;5091976;28;20107;-61
2021/08/08 03:51:21;;;;;;;3.63;1.90;;;;;;;;;;5092060;28;20035;-61
2021/08/08 03:53:47;;;;;;;12.95;2.08;;;;;;;;;;5074317;28;20487;-61
2021/08/08 03:56:12;;;;;;;9.80;2.47;;;;;;;;;;5092002;28;20028;-62
2021/08/08 03:58:38;;;;;;;11.32;2.38;;;;;;;;;;5092037;28;20028;-61
2021/08/08 04:01:04;;;;;;;13.15;2.03;;;;;;;;;;5092072;28;20054;-62
2021/08/08 04:03:31;;;;;;;10.20;2.22;;;;;;;;;;5092111;28;20346;-61
2021/08/08 04:05:57;;;;;;;5.18;2.08;;;;;;;;;;5092471;28;20024;-61
2021/08/08 04:08:23;;;;;;;6.88;1.85;;;;;;;;;;5096028;28;20479;-62
2021/08/08 04:10:49;;;;;;;6.85;2.35;;;;;;;;;;5102026;28;20087;-62
2021/08/08 04:13:15;;;;;;;9.75;2.10;;;;;;;;;;5073975;28;20764;-62
2021/08/08 04:15:41;;;;;;;8.88;2.20;;;;;;;;;;5092849;28;20217;-61
2021/08/08 04:18:06;;;;;;;6.75;2.00;;;;;;;;;;5078052;28;20020;-63
2021/08/08 04:20:32;;;;;;;5.57;2.40;;;;;;;;;;5096211;28;20524;-62
2021/08/08 04:22:58;;;;;;;10.70;2.08;;;;;;;;;;5100797;28;20027;-61
2021/08/08 04:25:24;;;;;;;13.48;2.03;;;;;;;;;;5111457;28;20051;-62
2021/08/08 04:27:50;;;;;;;12.55;2.10;;;;;;;;;;5085402;28;20035;-61
2021/08/08 04:30:16;;;;;;;6.40;2.03;;;;;;;;;;5106155;28;20031;-61
2021/08/08 04:32:42;;;;;;;9.68;1.85;;;;;;;;;;5105028;28;20031;-64
2021/08/08 04:35:08;;;;;;;9.07;1.90;;;;;;;;;;5108065;28;20509;-61
2021/08/08 04:37:34;;;;;;;19.52;1.85;;;;;;;;;;5107652;28;20669;-62
2021/08/08 04:40:00;;;;;;;12.75;2.35;;;;;;;;;;5104609;28;20467;-61
2021/08/08 04:42:26;;;;;;;11.40;2.08;;;;;;;;;;5088182;28;20020;-61
2021/08/08 04:44:52;;;;;;;8.55;2.10;;;;;;;;;;5101813;28;20034;-62
2021/08/08 04:47:18;;;;;;;13.73;2.30;;;;;;;;;;5104821;28;20019;-61
2021/08/08 04:49:44;;;;;;;9.00;2.58;;;;;;;;;;5104268;28;20372;-61
2021/08/08 04:52:10;;;;;;;20.30;2.67;;;;;;;;;;5114986;28;20047;-63
2021/08/08 04:54:36;;;;;;;10.05;2.25;;;;;;;;;;5106408;28;20055;-61
2021/08/08 04:57:02;;;;;;;13.50;2.30;;;;;;;;;;5106972;28;20016;-61
2021/08/08 04:59:28;;;;;;;19.13;2.38;;;;;;;;;;5114815;28;20027;-61
2021/08/08 05:01:54;;;;;;;18.42;2.10;;;;;;;;;;5114888;28;20445;-62
2021/08/08 05:04:20;;;;;;;34.35;2.17;;;;;;;;;;5114836;28;20042;-61
2021/08/08 05:06:46;;;;;;;17.58;2.22;;;;;;;;;;5114849;28;20020;-62
2021/08/08 05:09:12;;;;;;;22.38;2.40;;;;;;;;;;5075332;28;20131;-61
2021/08/08 05:11:38;;;;;;;20.98;2.30;;;;;;;;;;5097421;28;20020;-62
2021/08/08 05:14:04;;;;;;;16.70;1.80;;;;;;;;;;5094357;28;20034;-62
2021/08/08 05:16:30;;;;;;;16.00;2.45;;;;;;;;;;5094037;28;20091;-61
2021/08/08 05:18:56;;;;;;;16.05;2.70;;;;;;;;;;5094044;28;20475;-61
2021/08/08 05:21:22;;;;;;;13.52;2.55;;;;;;;;;;5094291;28;20353;-62
2021/08/08 05:23:48;;;;;;;15.05;2.45;;;;;;;;;;5094136;28;20081;-61
2021/08/08 05:26:14;;;;;;;15.60;2.60;;;;;;;;;;5075730;28;20024;-62
2021/08/08 05:28:42;;;;;;;12.80;2.08;;;;;;;;;;5075508;28;20039;-61
2021/08/08 05:31:08;;;;;;;12.23;2.28;;;;;;;;;;5093750;28;20028;-61
2021/08/08 05:33:34;;;;;;;14.32;2.22;;;;;;;;;;5093790;28;20066;-61
2021/08/08 05:36:00;;;;;;;14.60;2.42;;;;;;;;;;5080979;28;20027;-61
2021/08/08 05:38:26;;;;;;;17.83;2.60;;;;;;;;;;5092791;28;20078;-61
2021/08/08 05:40:52;;;;;;;13.50;2.53;;;;;;;;;;5113858;28;20020;-62
2021/08/08 05:43:19;;;;;;;21.10;3.25;;;;;;;;;;5114059;28;20111;-61
2021/08/08 05:45:47;;;;;;;15.95;2.45;;;;;;;;;;5113953;28;20020;-62
2021/08/08 05:48:14;;;;;;;19.30;2.90;;;;;;;;;;5111812;28;20073;-61
2021/08/08 05:50:40;;;;;;;29.80;2.45;;;;;;;;;;5103455;28;20062;-62
2021/08/08 05:53:06;;;;;;;10.57;2.00;;;;;;;;;;5113529;28;20031;-62
2021/08/08 05:55:35;;;;;;;14.95;2.35;;;;;;;;;;5093139;28;20024;-62
2021/08/08 05:58:01;;;;;;;12.85;2.22;;;;;;;;;;5093238;28;20111;-61
2021/08/08 06:00:27;;;;;;;13.93;2.15;;;;;;;;;;5093347;28;20100;-63
2021/08/08 06:02:53;;;;;;;18.17;2.63;;;;;;;;;;5093653;28;20035;-65
2021/08/08 06:05:19;;;;;;;11.00;2.30;;;;;;;;;;5093306;28;20032;-64
2021/08/08 06:07:44;;;;;;;15.23;2.30;;;;;;;;;;5093124;28;20399;-64
2021/08/08 06:10:11;;;;;;;15.27;2.97;;;;;;;;;;5112180;28;20131;-64
2021/08/08 06:12:37;;;;;;;20.52;2.80;;;;;;;;;;5103487;28;20032;-64
2021/08/08 06:15:03;;;;;;;17.40;2.72;;;;;;;;;;5093212;28;20035;-64
2021/08/08 06:17:31;;;;;;;20.05;2.90;;;;;;;;;;5092969;28;20028;-63
2021/08/08 06:19:57;;;;;;;21.58;3.25;;;;;;;;;;5093258;28;20028;-64
2021/08/08 06:22:23;;;;;;;25.17;3.78;;;;;;;;;;5092727;28;20077;-63
2021/08/08 06:24:49;;;;;;;22.60;2.65;;;;;;;;;;5074748;28;20024;-64
2021/08/08 06:27:15;;;;;;;21.52;3.90;;;;;;;;;;5092876;28;20020;-63
2021/08/08 06:29:41;;;;;;;19.02;3.03;;;;;;;;;;5093026;28;20031;-64
2021/08/08 06:32:07;;;;;;;20.90;3.65;;;;;;;;;;5092814;28;20364;-63
2021/08/08 06:34:33;;;;;;;23.52;3.55;;;;;;;;;;5092647;28;20055;-63
2021/08/08 06:36:59;;;;;;;17.42;3.50;;;;;;;;;;5092618;28;20020;-64
2021/08/08 06:39:25;;;;;;;21.77;3.70;;;;;;;;;;5091948;28;20028;-64
2021/08/08 06:41:51;;;;;;;25.15;3.20;;;;;;;;;;5092738;28;20020;-64
2021/08/08 06:44:17;;;;;;;22.30;3.15;;;;;;;;;;5092859;28;20035;-64
2021/08/08 06:46:43;;;;;;;20.20;3.60;;;;;;;;;;5092415;28;20032;-64
2021/08/08 06:49:09;;;;;;;23.58;4.15;;;;;;;;;;5091778;28;20039;-65
2021/08/08 06:51:35;;;;;;;27.30;3.97;;;;;;;;;;5091127;28;20060;-64
2021/08/08 06:54:01;;;;;;;22.67;3.50;;;;;;;;;;5092447;28;20792;-63
2021/08/08 06:56:29;;;;;;;29.08;4.10;;;;;;;;;;5105440;28;20027;-65
2021/08/08 06:58:55;;;;;;;23.83;3.20;;;;;;;;;;5090704;28;20035;-63
2021/08/08 07:01:21;;;;;;;20.08;3.20;;;;;;;;;;5072055;28;20020;-64
2021/08/08 07:03:47;;;;;;;19.27;3.35;;;;;;;;;;5072033;28;20028;-63
2021/08/08 07:06:13;;;;;;;21.02;3.60;;;;;;;;;;5071904;28;20043;-65
2021/08/08 07:08:39;;;;;;;23.20;3.90;;;;;;;;;;5084424;28;20035;-64
2021/08/08 07:11:05;;;;;;;22.48;3.65;;;;;;;;;;5099958;28;20368;-64
2021/08/08 07:13:31;;;;;;;34.00;3.90;;;;;;;;;;5074135;28;20051;-64
2021/08/08 07:15:56;;;;;;;18.25;3.67;;;;;;;;;;5092054;28;20059;-63
2021/08/08 07:18:23;;;;;;;26.17;4.47;;;;;;;;;;5091809;28;20371;-64
2021/08/08 07:20:49;;;;;;;28.20;4.57;;;;;;;;;;5092056;28;20059;-63
2021/08/08 07:23:15;;;;;;;19.92;3.88;;;;;;;;;;5091843;28;20063;-64
2021/08/08 07:25:41;;;;;;;23.65;4.00;;;;;;;;;;5091977;28;20032;-64
2021/08/08 07:28:07;;;;;;;17.42;3.88;;;;;;;;;;5092136;28;20035;-65
2021/08/08 07:30:33;;;;;;;25.42;4.32;;;;;;;;;;5091657;28;20041;-64
2021/08/08 07:32:59;;;;;;;28.33;3.60;;;;;;;;;;5092019;28;20024;-64
2021/08/08 07:35:26;;;;;;;21.10;4.05;;;;;;;;;;5091954;28;20363;-65
2021/08/08 07:37:52;;;;;;;16.98;3.33;;;;;;;;;;5091787;28;20032;-65
2021/08/08 07:40:18;;;;;;;24.15;4.13;;;;;;;;;;5091627;28;20028;-66
2021/08/08 07:42:51;;;;;;;18.90;3.75;;;;;;;;;;5091940;28;20101;-66
2021/08/08 07:45:17;;;;;;;26.70;3.70;;;;;;;;;;5092050;28;20062;-66
2021/08/08 07:47:43;;;;;;;30.25;3.92;;;;;;;;;;5091885;28;20047;-66
2021/08/08 07:50:09;;;;;;;19.42;3.80;;;;;;;;;;5084364;28;20472;-65
2021/08/08 07:52:36;;;;;;;29.15;4.22;;;;;;;;;;5079724;28;20095;-67
2021/08/08 07:55:03;;;;;;;18.80;3.78;;;;;;;;;;5095570;28;20024;-65
2021/08/08 07:57:29;;;;;;;32.20;3.65;;;;;;;;;;5094750;28;20088;-66
2021/08/08 07:59:55;;;;;;;170.73;6.30;;;;;;;;;;5095299;28;20040;-67
2021/08/08 08:02:22;;;;;;;47.20;3.90;;;;;;;;;;5094730;28;20027;-65
2021/08/08 08:04:48;;;;;;;79.68;4.60;;;;;;;;;;5075825;28;20036;-65
2021/08/08 08:07:14;;;;;;;68.40;4.22;;;;;;;;;;5075495;28;20021;-66
2021/08/08 08:09:40;;;;;;;40.47;4.50;;;;;;;;;;5111063;28;20043;-67
2021/08/08 08:12:06;;;;;;;59.38;4.03;;;;;;;;;;5097874;28;20647;-64
2021/08/08 08:14:32;;;;;;;47.00;4.20;;;;;;;;;;5116095;28;20047;-64
2021/08/08 08:16:58;;;;;;;24.30;3.60;;;;;;;;;;5116155;28;20027;-63
2021/08/08 08:19:24;;;;;;;17.42;3.45;;;;;;;;;;5110803;28;20024;-63
2021/08/08 08:21:50;;;;;;;24.60;3.17;;;;;;;;;;5077261;28;20478;-64
2021/08/08 08:24:16;;;;;;;25.33;3.15;;;;;;;;;;5095367;28;20036;-65
2021/08/08 08:26:42;;;;;;;17.00;3.00;;;;;;;;;;5095999;28;20024;-76
2021/08/08 08:29:08;;;;;;;16.38;3.50;;;;;;;;;;5095697;28;20040;-74
2021/08/08 08:31:35;;;;;;;28.75;3.47;;;;;;;;;;5095792;28;20023;-74
2021/08/08 08:34:01;;;;;;;16.90;3.33;;;;;;;;;;5100618;28;20031;-75
2021/08/08 08:36:27;;;;;;;21.33;3.17;;;;;;;;;;5109660;28;20020;-75
2021/08/08 08:38:53;;;;;;;17.40;3.30;;;;;;;;;;5086768;28;20463;-75
2021/08/08 08:41:23;;;;;;;17.88;3.65;;;;;;;;;;5110170;28;20023;-74
2021/08/08 08:43:49;;;;;;;18.92;3.53;;;;;;;;;;5104062;28;20072;-74
2021/08/08 08:46:15;;;;;;;12.02;3.25;;;;;;;;;;5113837;28;20016;-74
2021/08/08 08:48:43;;;;;;;23.48;3.15;;;;;;;;;;5108905;28;20390;-72
2021/08/08 08:51:09;;;;;;;19.30;2.65;;;;;;;;;;5097697;28;20043;-75
2021/08/08 08:53:36;;;;;;;16.35;3.55;;;;;;;;;;5115248;28;20012;-74
2021/08/08 08:56:03;;;;;;;16.77;2.95;;;;;;;;;;5107831;28;20020;-75
2021/08/08 08:58:31;;;;;;;14.48;2.80;;;;;;;;;;5108802;28;20035;-72
2021/08/08 09:00:57;;;;;;;12.23;2.65;;;;;;;;;;5094736;28;20024;-73
2021/08/08 09:03:23;;;;;;;16.25;2.53;;;;;;;;;;5097293;28;20027;-73
2021/08/08 09:05:49;;;;;;;17.88;3.25;;;;;;;;;;5116152;28;20095;-73
2021/08/08 09:08:15;;;;;;;17.23;3.22;;;;;;;;;;5112432;28;20070;-76
2021/08/08 09:10:41;;;;;;;25.58;2.97;;;;;;;;;;5059487;28;20462;-75
2021/08/08 09:13:07;;;;;;;18.58;3.22;;;;;;;;;;4993366;28;20057;-67
2021/08/08 09:15:33;;;;;;;31.15;4.10;;;;;;;;;;4992715;28;20037;-67
2021/08/08 09:18:22;;;;;;;30.85;3.97;;;;;;;;;;4992492;28;20035;-77
2021/08/08 09:20:49;;;;;;;29.38;4.03;;;;;;;;;;4993212;28;20114;-69
2021/08/08 09:23:15;;;;;;;26.55;3.67;;;;;;;;;;4992121;28;20030;-70
2021/08/08 09:26:07;;;;;;;23.80;3.72;;;;;;;;;;4991820;28;20034;-70
2021/08/08 09:28:33;;;;;;;19.30;3.23;;;;;;;;;;4993672;28;20042;-72
2021/08/08 09:31:00;;;;;;;20.02;3.97;;;;;;;;;;4992141;28;20356;-71
2021/08/08 09:33:26;;;;;;;20.15;3.65;;;;;;;;;;5059011;28;20034;-71
2021/08/08 09:35:53;;;;;;;16.38;3.40;;;;;;;;;;5059309;28;20041;-71
2021/08/08 09:38:20;;;;;;;19.38;4.18;;;;;;;;;;5059158;28;20041;-71
2021/08/08 09:40:58;;;;;;;22.55;3.70;;;;;;;;;;4992026;28;20552;-72
2021/08/08 09:43:25;;;;;;;19.30;3.70;;;;;;;;;;4992145;28;20022;-71
2021/08/08 09:45:51;;;;;;;21.95;3.33;;;;;;;;;;5059034;28;20030;-71
2021/08/08 09:48:17;;;;;;;18.42;3.58;;;;;;;;;;4991812;28;20343;-71
2021/08/08 09:50:44;;;;;;;20.73;3.90;;;;;;;;;;5058762;28;20037;-71
2021/08/08 09:53:16;;;;;;;20.55;4.05;;;;;;;;;;4991689;28;20087;-71
2021/08/08 09:55:42;;;;;;;17.17;3.47;;;;;;;;;;4991826;28;20172;-71
2021/08/08 09:58:11;;;;;;;24.15;3.75;;;;;;;;;;4991983;28;20481;-71
2021/08/08 10:00:41;;;;;;;19.45;3.35;;;;;;;;;;4991756;28;20033;-71
2021/08/08 10:03:08;;;;;;;25.58;3.72;;;;;;;;;;5058814;28;20239;-71
2021/08/08 10:05:34;;;;;;;20.33;3.50;;;;;;;;;;4991744;28;20054;-71
2021/08/08 10:08:10;;;;;;;17.48;3.20;;;;;;;;;;4991627;28;20099;-71
2021/08/08 10:10:36;;;;;;;19.73;2.92;;;;;;;;;;5059246;28;20055;-71
2021/08/08 10:13:09;;;;;;;23.95;3.47;;;;;;;;;;5075315;28;20026;-71
2021/08/08 10:15:45;;;;;;;16.20;3.33;;;;;;;;;;5093599;28;20493;-70
2021/08/08 10:18:13;;;;;;;13.07;2.97;;;;;;;;;;5075535;28;20115;-71
2021/08/08 10:20:39;;;;;;;15.15;3.33;;;;;;;;;;5093813;28;20405;-72
2021/08/08 10:23:06;;;;;;;16.10;2.92;;;;;;;;;;5093568;28;20512;-71
2021/08/08 10:25:32;;;;;;;16.48;2.90;;;;;;;;;;5093309;28;20021;-72
2021/08/08 10:27:58;;;;;;;17.63;3.30;;;;;;;;;;5093601;28;20028;-72
2021/08/08 10:30:24;;;;;;;14.30;2.40;;;;;;;;;;5075135;28;20036;-72
2021/08/08 10:32:50;;;;;;;13.73;2.67;;;;;;;;;;5075213;28;20023;-71
2021/08/08 10:35:17;;;;;;;10.60;2.50;;;;;;;;;;5093488;28;20379;-71
2021/08/08 10:37:44;;;;;;;11.73;2.40;;;;;;;;;;5093394;28;20028;-72
2021/08/08 10:40:10;;;;;;;12.38;2.65;;;;;;;;;;5074949;28;20066;-71
2021/08/08 10:42:43;;;;;;;15.40;2.83;;;;;;;;;;5093397;28;20061;-71
2021/08/08 10:45:24;;;;;;;13.38;2.90;;;;;;;;;;5093395;28;20085;-71
2021/08/08 10:47:54;;;;;;;15.43;2.47;;;;;;;;;;5075362;28;20118;-71
2021/08/08 10:50:20;;;;;;;18.88;3.00;;;;;;;;;;5075135;28;20118;-71
2021/08/08 10:52:46;;;;;;;17.20;2.88;;;;;;;;;;5075267;28;20062;-71
2021/08/08 10:55:27;;;;;;;15.70;3.22;;;;;;;;;;5093361;28;20032;-71
2021/08/08 10:57:53;;;;;;;9.50;2.50;;;;;;;;;;5093253;28;20012;-72
2021/08/08 11:00:19;;;;;;;17.38;3.03;;;;;;;;;;5093259;28;20494;-71
2021/08/08 11:02:46;;;;;;;13.48;2.45;;;;;;;;;;5093306;28;20543;-72
2021/08/08 11:05:13;;;;;;;14.07;2.38;;;;;;;;;;5093261;28;20027;-72
2021/08/08 11:07:41;;;;;;;10.35;2.40;;;;;;;;;;5093109;28;20794;-71
2021/08/08 11:10:07;;;;;;;9.50;2.50;;;;;;;;;;5092983;28;20509;-72
2021/08/08 11:12:34;;;;;;;13.35;2.35;;;;;;;;;;5093059;28;20049;-72
2021/08/08 11:15:01;;;;;;;11.98;2.70;;;;;;;;;;5093629;28;20031;-72
2021/08/08 11:17:27;;;;;;;15.15;2.53;;;;;;;;;;5075536;28;20043;-71
2021/08/08 11:19:54;;;;;;;17.15;2.97;;;;;;;;;;5093078;28;20048;-72
2021/08/08 11:22:20;;;;;;;13.35;2.78;;;;;;;;;;5093154;28;20556;-73
2021/08/08 11:25:00;;;;;;;13.57;2.35;;;;;;;;;;5075583;28;20027;-72
2021/08/08 11:27:30;;;;;;;10.95;2.55;;;;;;;;;;5097208;28;20099;-71
2021/08/08 11:29:56;;;;;;;11.45;2.47;;;;;;;;;;5097118;28;20066;-71
2021/08/08 11:32:27;;;;;;;15.38;2.40;;;;;;;;;;5097178;28;20123;-72
2021/08/08 11:35:04;;;;;;;12.48;2.10;;;;;;;;;;5097315;28;20539;-72
2021/08/08 11:37:31;;;;;;;14.07;2.50;;;;;;;;;;5097019;28;20024;-71
2021/08/08 11:39:56;;;;;;;8.85;2.20;;;;;;;;;;5078792;28;20478;-72
2021/08/08 11:42:29;;;;;;;13.93;2.45;;;;;;;;;;5096962;28;20050;-72
2021/08/08 11:44:55;;;;;;;17.17;2.42;;;;;;;;;;5078869;28;20078;-71
2021/08/08 11:47:26;;;;;;;12.45;2.92;;;;;;;;;;5096910;28;20032;-72
2021/08/08 11:49:52;;;;;;;14.52;2.47;;;;;;;;;;5096685;28;20094;-72
2021/08/08 11:52:19;;;;;;;12.82;2.35;;;;;;;;;;5078724;28;20020;-71
2021/08/08 11:54:46;;;;;;;14.63;2.05;;;;;;;;;;5096956;28;20024;-72
2021/08/08 11:57:24;;;;;;;15.63;2.72;;;;;;;;;;5096526;28;20020;-72
2021/08/08 11:59:50;;;;;;;13.32;2.17;;;;;;;;;;5096682;28;20058;-71
2021/08/08 12:02:18;;;;;;;10.15;2.50;;;;;;;;;;5096671;28;20476;-71
2021/08/08 12:04:44;;;;;;;16.83;3.25;;;;;;;;;;5096854;28;20379;-72
2021/08/08 12:07:10;;;;;;;10.35;2.28;;;;;;;;;;5096490;28;20024;-72
2021/08/08 12:09:37;;;;;;;13.82;2.45;;;;;;;;;;5096109;28;20044;-71
2021/08/08 12:12:06;;;;;;;9.80;2.28;;;;;;;;;;5078695;28;20032;-72
2021/08/08 12:14:43;;;;;;;7.32;2.13;;;;;;;;;;5096436;28;20089;-72
2021/08/08 12:17:12;;;;;;;13.68;2.45;;;;;;;;;;5096284;28;20024;-71
2021/08/08 12:19:39;;;;;;;11.07;2.42;;;;;;;;;;5096306;28;20035;-72
2021/08/08 12:22:07;;;;;;;12.32;2.28;;;;;;;;;;5096222;28;20103;-71
2021/08/08 12:24:34;;;;;;;14.35;2.65;;;;;;;;;;5078203;28;20474;-70
2021/08/08 12:27:00;;;;;;;9.68;2.20;;;;;;;;;;5096376;28;20791;-69
2021/08/08 12:29:30;;;;;;;11.35;2.00;;;;;;;;;;5096159;28;20031;-71
2021/08/08 12:32:05;;;;;;;9.63;2.05;;;;;;;;;;5096214;28;20027;-71
2021/08/08 12:34:31;;;;;;;12.10;2.30;;;;;;;;;;5095704;28;20081;-70
2021/08/08 12:37:08;;;;;;;10.57;2.60;;;;;;;;;;5076862;28;20376;-71
2021/08/08 12:39:34;;;;;;;15.45;2.78;;;;;;;;;;5077990;28;20120;-71
2021/08/08 12:42:02;;;;;;;10.80;2.67;;;;;;;;;;5095655;28;20108;-71
2021/08/08 12:44:35;;;;;;;11.10;2.67;;;;;;;;;;5095620;28;20051;-71
2021/08/08 12:47:02;;;;;;;9.68;2.33;;;;;;;;;;5095574;28;20028;-72
2021/08/08 12:49:38;;;;;;;14.63;2.13;;;;;;;;;;5095494;28;20081;-72
2021/08/08 12:52:05;;;;;;;17.42;2.40;;;;;;;;;;5095393;28;20095;-72
2021/08/08 12:54:34;;;;;;;10.88;2.60;;;;;;;;;;5095428;28;20066;-71
2021/08/08 12:57:01;;;;;;;11.63;2.38;;;;;;;;;;5095312;28;20477;-71
2021/08/08 12:59:27;;;;;;;20.13;2.70;;;;;;;;;;5095227;28;20028;-72
2021/08/08 13:01:55;;;;;;;14.25;2.97;;;;;;;;;;5077084;28;20363;-72
2021/08/08 13:04:21;;;;;;;12.60;2.65;;;;;;;;;;5095160;28;20024;-72
2021/08/08 13:06:47;;;;;;;18.98;2.70;;;;;;;;;;5077058;28;20024;-72
2021/08/08 13:09:13;;;;;;;16.88;2.65;;;;;;;;;;5094942;28;20440;-72
2021/08/08 13:11:40;;;;;;;15.07;2.42;;;;;;;;;;5094758;28;20524;-71
2021/08/08 13:14:05;;;;;;;12.70;2.60;;;;;;;;;;5095124;28;20386;-72
2021/08/08 13:16:31;;;;;;;15.93;3.08;;;;;;;;;;5076687;28;20485;-72
2021/08/08 13:18:57;;;;;;;21.10;3.35;;;;;;;;;;5094977;28;20054;-72
2021/08/08 13:21:23;;;;;;;15.32;2.90;;;;;;;;;;5094894;28;20020;-72
2021/08/08 13:23:49;;;;;;;14.40;2.47;;;;;;;;;;5076687;28;20043;-71
2021/08/08 13:26:15;;;;;;;17.00;2.80;;;;;;;;;;5094593;28;20046;-72
2021/08/08 13:28:41;;;;;;;18.83;2.67;;;;;;;;;;5094627;28;20119;-72
2021/08/08 13:31:08;;;;;;;16.05;3.42;;;;;;;;;;5094674;28;20062;-72
2021/08/08 13:33:34;;;;;;;18.52;3.38;;;;;;;;;;5094531;28;20463;-72
2021/08/08 13:36:00;;;;;;;13.82;2.65;;;;;;;;;;5094864;28;20020;-71
2021/08/08 13:38:26;;;;;;;17.98;3.35;;;;;;;;;;5095074;28;20043;-71
2021/08/08 13:40:52;;;;;;;20.98;3.28;;;;;;;;;;5095632;28;20066;-71
2021/08/08 13:43:19;;;;;;;18.13;3.47;;;;;;;;;;5095026;28;20107;-71
2021/08/08 13:45:44;;;;;;;14.52;2.70;;;;;;;;;;5076688;28;20021;-72
2021/08/08 13:48:13;;;;;;;11.38;2.70;;;;;;;;;;5093879;28;20024;-71
2021/08/08 13:50:39;;;;;;;17.02;4.43;;;;;;;;;;5094328;28;20471;-71
2021/08/08 13:53:05;;;;;;;14.45;2.80;;;;;;;;;;5094689;28;20054;-70
2021/08/08 13:55:31;;;;;;;18.27;3.33;;;;;;;;;;5094525;28;20390;-71
2021/08/08 13:57:57;;;;;;;18.40;3.05;;;;;;;;;;5094409;28;20356;-70
2021/08/08 14:00:23;;;;;;;15.93;2.78;;;;;;;;;;5094552;28;20024;-72
2021/08/08 14:02:49;;;;;;;19.85;3.17;;;;;;;;;;5076138;28;20050;-71
2021/08/08 14:05:16;;;;;;;13.13;2.60;;;;;;;;;;5094129;28;20359;-70
2021/08/08 14:07:42;;;;;;;18.75;3.40;;;;;;;;;;5094512;28;20024;-72
2021/08/08 14:10:10;;;;;;;14.32;2.80;;;;;;;;;;5112403;28;20055;-71
2021/08/08 14:12:36;;;;;;;17.55;2.60;;;;;;;;;;5114451;28;20371;-72
2021/08/08 14:15:02;;;;;;;13.30;3.08;;;;;;;;;;5114240;28;20038;-71
2021/08/08 14:17:28;;;;;;;20.58;3.05;;;;;;;;;;5114081;28;20020;-71
2021/08/08 14:19:54;;;;;;;11.73;2.83;;;;;;;;;;5095702;28;20030;-71
2021/08/08 14:22:20;;;;;;;13.75;2.75;;;;;;;;;;5114408;28;20028;-71
2021/08/08 14:24:46;;;;;;;13.02;2.40;;;;;;;;;;5114324;28;20478;-71
2021/08/08 14:27:12;;;;;;;19.55;3.10;;;;;;;;;;5114175;28;20028;-72
2021/08/08 14:29:38;;;;;;;13.88;2.95;;;;;;;;;;5114063;28;20046;-72
2021/08/08 14:32:05;;;;;;;16.10;3.10;;;;;;;;;;5113873;28;20089;-71